Harrisonville, Missouri
Current Conditions -  °F | °C
As of 10:53 AM on Thursday 30 Oct 2014 (Local Time) from KLXT Reporting Station
Scattered Clouds Scattered Clouds  
Wind Chill: 54°   Ceiling: Unl
Heat Index: 54°   Visibility: 10mi
Dew Point: 43°   Wind: 5mph
Humidity: 66%   Direction: 240°WSW
Pressure: 30.02"   Gusts: NA
Location:  38.65°N, 94.35°W
Report Text: KLXT 301553Z AUTO 24004KT 10SM SCT100 SCT120 12/06 A3002 RMK AO2 SLP167 T01220061
Loading
Personal Weather Stations






























Interactive Weather Map
Tropical Storm Tracking
New forecast layout! Learn more

10-Day Weather Forecast

Advertisements
Track Severe Weather on mobile